Svitzer Sines — CSYI4 — position and weather

sailwx.info

Track history (hours):
 
Tides and Currents Weather Stations Pressure Air Temp Water Temp Dewpoint Dewpoint Depression Visibility Wind Speed Wind Dir Waves Ship Positions

Svitzer Sines

Last reported at 2017-Apr-24 20:39 UTC. Time now 2017-Apr-25 12:20 UTC.
Position N 37°08' W 008°32'.

Length 28 m; draft 4.8 m.

Type: Other ship. MMSI: 263601890.

Date/timePositionNaut miles runAvg speedWind from/ knotsBaromVisibWave heightAir tempDewpointWater temp
2017-Apr-24 20:39N 37°08' W 008°32'0 0.0
2017-Apr-24 20:30N 37°08' W 008°32'0 0.0
2017-Apr-24 20:00N 37°08' W 008°32'0 0.0
2017-Apr-24 19:30N 37°08' W 008°32'0 0.0
2017-Apr-24 19:00N 37°08' W 008°32'2 3.1
2017-Apr-24 18:30N 37°06' W 008°32'2 3.2
2017-Apr-24 18:00N 37°08' W 008°32'0 0.3
2017-Apr-24 17:30N 37°08' W 008°32'0 0.0
2017-Apr-24 17:00N 37°08' W 008°32'0 0.4
2017-Apr-24 16:30N 37°08' W 008°32'0 0.0
2017-Apr-24 16:00N 37°08' W 008°32'0 0.0
2017-Apr-24 15:30N 37°08' W 008°32'0 0.0
2017-Apr-24 15:00N 37°08' W 008°32'0 0.0
2017-Apr-24 14:30N 37°08' W 008°32'0 0.0
2017-Apr-24 13:30N 37°08' W 008°32'0 0.0
2017-Apr-24 13:00N 37°08' W 008°32'0 0.0
2017-Apr-24 12:30N 37°08' W 008°32'0 0.0
2017-Apr-24 11:59N 37°08' W 008°32'0 0.0
2017-Apr-24 11:30N 37°08' W 008°32'0 0.0
2017-Apr-24 11:00N 37°08' W 008°32'0 0.1
2017-Apr-24 10:30N 37°08' W 008°32'2 4.9
2017-Apr-24 10:00N 37°05' W 008°32'0 0.1
2017-Apr-24 09:30N 37°05' W 008°32'0 0.3
2017-Apr-24 09:00N 37°05' W 008°32'2 4.9
2017-Apr-24 08:30N 37°08' W 008°32'0 0.0
2017-Apr-24 08:01N 37°08' W 008°32'0 0.0
2017-Apr-24 07:30N 37°08' W 008°32'0 0.0
2017-Apr-24 07:00N 37°08' W 008°32'0 0.0
2017-Apr-24 06:30N 37°08' W 008°32'0 0.0
2017-Apr-24 06:00N 37°08' W 008°32'0 0.0
2017-Apr-24 05:30N 37°08' W 008°32'0 0.0
2017-Apr-24 05:00N 37°08' W 008°32'0 0.0
2017-Apr-24 04:30N 37°08' W 008°32'0 0.0
2017-Apr-24 04:00N 37°08' W 008°32'0 0.0
2017-Apr-24 03:30N 37°08' W 008°32'0 0.0
2017-Apr-24 03:00N 37°08' W 008°32'0 0.0
2017-Apr-24 02:30N 37°08' W 008°32'0 0.0
2017-Apr-24 02:00N 37°08' W 008°32'3 5.5
2017-Apr-24 01:30N 37°05' W 008°32'5 9.3
2017-Apr-24 01:00N 37°02' W 008°37'5 9.5
2017-Apr-24 00:30N 36°59' W 008°41'5 9.4
2017-Apr-23 23:59N 36°56' W 008°46'4 9.0
2017-Apr-23 23:30N 36°53' W 008°51'5 9.1
2017-Apr-23 23:00N 36°51' W 008°55'4 8.4
2017-Apr-23 22:30N 36°50' W 009°00'5 8.8
2017-Apr-23 21:59N 36°51' W 009°06'5 9.5
2017-Apr-23 21:30N 36°54' W 009°10'5 9.2
2017-Apr-23 21:00N 36°58' W 009°13'5 9.7
2017-Apr-23 20:30N 37°03' W 009°12'5 9.4
2017-Apr-23 20:00N 37°07' W 009°09'4 8.8
2017-Apr-23 19:30N 37°12' W 009°09'5 9.0
2017-Apr-23 19:00N 37°16' W 009°09'5 9.4
2017-Apr-23 18:30N 37°21' W 009°10'510.0
2017-Apr-23 18:00N 37°26' W 009°11'5 9.9
2017-Apr-23 17:28N 37°31' W 009°11'5 9.9
2017-Apr-23 17:00N 37°36' W 009°12'5 9.7
2017-Apr-23 16:30N 37°41' W 009°12'5 9.7
2017-Apr-23 16:00N 37°45' W 009°13'5 9.8
2017-Apr-23 15:30N 37°50' W 009°14'5 9.8
2017-Apr-23 15:00N 37°55' W 009°14'5 9.5
2017-Apr-23 14:30N 37°60' W 009°15'10 9.4
2017-Apr-23 13:29N 38°09' W 009°17'4 9.3
2017-Apr-23 13:01N 38°14' W 009°18'5 9.3
2017-Apr-23 12:30N 38°18' W 009°18'5 9.1
2017-Apr-23 12:00N 38°23' W 009°19'5 9.1
2017-Apr-23 11:30N 38°27' W 009°20'5 9.2
2017-Apr-23 11:00N 38°32' W 009°21'5 9.0
2017-Apr-23 10:30N 38°36' W 009°21'4 8.1
2017-Apr-23 10:00N 38°40' W 009°19'4 8.3
2017-Apr-23 09:30N 38°41' W 009°14'3 6.4
2017-Apr-23 09:00N 38°42' W 009°10'0 0.0
2017-Apr-23 08:30N 38°42' W 009°10'0 0.0
2017-Apr-23 08:00N 38°42' W 009°10'0 0.0
2017-Apr-23 07:30N 38°42' W 009°10'0 0.0
2017-Apr-23 07:00N 38°42' W 009°10'0 0.0
2017-Apr-23 06:30N 38°42' W 009°10'0 0.0
2017-Apr-23 06:00N 38°42' W 009°10'0 0.0
2017-Apr-23 05:30N 38°42' W 009°10'0 0.0
2017-Apr-23 05:00N 38°42' W 009°10'0 0.0
2017-Apr-23 04:30N 38°42' W 009°10'0 0.0
2017-Apr-23 04:00N 38°42' W 009°10'0 0.0
2017-Apr-23 03:30N 38°42' W 009°10'0 0.0
2017-Apr-23 03:00N 38°42' W 009°10'0 0.0
2017-Apr-23 02:30N 38°42' W 009°10'0 0.0
2017-Apr-23 02:00N 38°42' W 009°10'0 0.0
2017-Apr-23 01:29N 38°42' W 009°10'0 0.0
2017-Apr-23 01:01N 38°42' W 009°10'0 0.0
2017-Apr-23 00:30N 38°42' W 009°10'0 0.0
2017-Apr-23 00:00N 38°42' W 009°10'0 0.0
2017-Apr-22 23:30N 38°42' W 009°10'0 0.0
2017-Apr-22 23:00N 38°42' W 009°10'0 0.0
2017-Apr-22 22:30N 38°42' W 009°10'0 0.0
2017-Apr-22 22:00N 38°42' W 009°10'0 0.0
2017-Apr-22 21:30N 38°42' W 009°10'0 0.0
2017-Apr-22 21:00N 38°42' W 009°10'0 0.0
2017-Apr-22 20:30N 38°42' W 009°10'0 0.0
2017-Apr-22 20:00N 38°42' W 009°10'0 0.0
2017-Apr-22 19:30N 38°42' W 009°10'0 0.0
2017-Apr-22 19:00N 38°42' W 009°10'0 0.0
2017-Apr-22 18:30N 38°42' W 009°10'0 0.0
2017-Apr-22 18:00N 38°42' W 009°10'0 0.0
2017-Apr-22 17:30N 38°42' W 009°10'0 0.0
2017-Apr-22 17:00N 38°42' W 009°10'0 0.0
2017-Apr-22 16:30N 38°42' W 009°10'0 0.0
2017-Apr-22 16:00N 38°42' W 009°10'0 0.0
2017-Apr-22 15:30N 38°42' W 009°10'0 0.0
2017-Apr-22 14:59N 38°42' W 009°10'0 0.0
2017-Apr-22 14:30N 38°42' W 009°10'0 0.0
2017-Apr-22 13:30N 38°42' W 009°10'0 0.0
2017-Apr-22 13:00N 38°42' W 009°10'0 0.0
2017-Apr-22 12:31N 38°42' W 009°10'0 0.0
2017-Apr-22 12:00N 38°42' W 009°10'0 0.0
2017-Apr-22 11:29N 38°42' W 009°10'0 0.0
2017-Apr-22 10:59N 38°42' W 009°10'0 0.0
2017-Apr-22 10:30N 38°42' W 009°10'0 0.0
2017-Apr-22 10:00N 38°42' W 009°10'0 0.0
2017-Apr-22 09:30N 38°42' W 009°10'0 0.0
2017-Apr-22 08:59N 38°42' W 009°10'0 0.0
2017-Apr-22 08:29N 38°42' W 009°10'0 0.0
2017-Apr-22 08:00N 38°42' W 009°10'0 0.0
2017-Apr-22 07:29N 38°42' W 009°10'0 0.0
2017-Apr-22 07:00N 38°42' W 009°10'0 0.0
2017-Apr-22 06:30N 38°42' W 009°10'0 0.0
2017-Apr-22 06:00N 38°42' W 009°10'0 0.0
2017-Apr-22 05:30N 38°42' W 009°10'0 0.0
2017-Apr-22 05:00N 38°42' W 009°10'0 0.0
2017-Apr-22 04:30N 38°42' W 009°10'0 0.0
2017-Apr-22 04:00N 38°42' W 009°10'0 0.0
2017-Apr-22 03:30N 38°42' W 009°10'0 0.0
2017-Apr-22 03:00N 38°42' W 009°10'0 0.0
2017-Apr-22 02:30N 38°42' W 009°10'0 0.0
2017-Apr-22 01:59N 38°42' W 009°10'1 2.8
2017-Apr-22 01:31N 38°42' W 009°11'2 4.1
2017-Apr-22 00:59N 38°41' W 009°14'3 6.0
2017-Apr-22 00:31N 38°42' W 009°10'1 1.2
2017-Apr-21 23:59N 38°42' W 009°10'0 0.0
2017-Apr-21 23:30N 38°42' W 009°10'0 0.5
2017-Apr-21 23:00N 38°42' W 009°10'2 3.4
2017-Apr-21 22:29N 38°41' W 009°12'2 4.1
2017-Apr-21 22:00N 38°42' W 009°10'0 0.0
2017-Apr-21 21:30N 38°42' W 009°10'0 0.0
2017-Apr-21 21:00N 38°42' W 009°10'0 0.0
2017-Apr-21 20:30N 38°42' W 009°10'0 0.0
2017-Apr-21 20:00N 38°42' W 009°10'0 0.0
2017-Apr-21 19:30N 38°42' W 009°10'0 0.0
2017-Apr-21 18:59N 38°42' W 009°10'0 0.0
2017-Apr-21 18:30N 38°42' W 009°10'0 0.0
2017-Apr-21 18:00N 38°42' W 009°10'0 0.0
2017-Apr-21 17:30N 38°42' W 009°10'2 4.3
2017-Apr-21 17:00N 38°40' W 009°09'0 0.6
2017-Apr-21 16:30N 38°40' W 009°09'1 2.2
2017-Apr-21 16:01N 38°41' W 009°08'1 1.9
2017-Apr-21 15:27N 38°40' W 009°09'1 1.5
2017-Apr-21 15:00N 38°41' W 009°08'1 2.8
2017-Apr-21 14:30N 38°42' W 009°09'0 0.5
2017-Apr-21 13:30N 38°42' W 009°10'0 0.0
2017-Apr-21 12:59N 38°42' W 009°10'0 0.0
2017-Apr-21 12:29N 38°42' W 009°10'2 3.4
2017-Apr-21 12:00N 38°41' W 009°11'0 0.0
2017-Apr-21 11:30N 38°41' W 009°11'0 0.0
2017-Apr-21 10:58N 38°41' W 009°11'1 1.6
2017-Apr-21 10:29N 38°41' W 009°12'0 0.9
2017-Apr-21 10:00N 38°41' W 009°11'1 1.5
2017-Apr-21 09:30N 38°41' W 009°11'1 2.1
2017-Apr-21 09:00N 38°42' W 009°10'0 0.0
2017-Apr-21 08:30N 38°42' W 009°10'0 0.0
2017-Apr-21 08:00N 38°42' W 009°10'2 3.9
2017-Apr-21 07:30N 38°40' W 009°09'0 0.2
2017-Apr-21 07:00N 38°40' W 009°09'2 4.1
2017-Apr-21 06:30N 38°42' W 009°10'0 0.0
2017-Apr-21 06:00N 38°42' W 009°10'0 0.0
2017-Apr-21 05:28N 38°42' W 009°10'0 0.0
2017-Apr-21 05:00N 38°42' W 009°10'0 0.0
2017-Apr-21 04:30N 38°42' W 009°10'0 0.0
2017-Apr-21 04:00N 38°42' W 009°10'0 0.0
2017-Apr-21 03:30N 38°42' W 009°10'0 0.0
2017-Apr-21 02:59N 38°42' W 009°10'0 0.0
2017-Apr-21 02:30N 38°42' W 009°10'0 0.0
2017-Apr-21 02:00N 38°42' W 009°10'0 0.0
2017-Apr-21 01:30N 38°42' W 009°10'0 0.0
2017-Apr-21 01:00N 38°42' W 009°10'0 0.0
2017-Apr-21 00:30N 38°42' W 009°10'0 0.0
2017-Apr-21 00:00N 38°42' W 009°10'1 1.7
2017-Apr-20 23:29N 38°42' W 009°11'1 2.1
2017-Apr-20 23:00N 38°41' W 009°12'0 0.1
2017-Apr-20 22:30N 38°41' W 009°12'0 0.1
2017-Apr-20 22:00N 38°41' W 009°12'1 1.0
2017-Apr-20 21:30N 38°41' W 009°11'1 2.8
2017-Apr-20 21:01N 38°42' W 009°10'0 0.0
2017-Apr-20 20:30N 38°42' W 009°10'0 0.0
2017-Apr-20 20:00N 38°42' W 009°10'0 0.0
2017-Apr-20 19:30N 38°42' W 009°10'0 0.0
2017-Apr-20 19:00N 38°42' W 009°10'0 0.0
2017-Apr-20 18:30N 38°42' W 009°10'0 0.0
2017-Apr-20 18:00N 38°42' W 009°10'0 0.5
2017-Apr-20 17:30N 38°42' W 009°10'2 3.8
2017-Apr-20 17:00N 38°41' W 009°12'0 0.7
2017-Apr-20 16:29N 38°41' W 009°12'2 5.1
2017-Apr-20 16:00N 38°42' W 009°10'0 0.0
2017-Apr-20 15:30N 38°42' W 009°10'0 0.0
2017-Apr-20 15:00N 38°42' W 009°10'0 0.0
2017-Apr-20 14:00N 38°42' W 009°10'0 0.0
2017-Apr-20 13:31N 38°42' W 009°10'0 0.0
2017-Apr-20 13:00N 38°42' W 009°10'0 0.0
2017-Apr-20 12:30N 38°42' W 009°10'0 0.0
2017-Apr-20 12:00N 38°42' W 009°10'0 0.0
2017-Apr-20 11:30N 38°42' W 009°10'0 0.0
2017-Apr-20 11:00N 38°42' W 009°10'2 4.4
2017-Apr-20 10:30N 38°41' W 009°12'1 1.9
2017-Apr-20 10:00N 38°41' W 009°13'3 5.9
2017-Apr-20 09:29N 38°42' W 009°09'0 0.4
2017-Apr-20 09:00N 38°42' W 009°10'0 0.0
2017-Apr-20 08:30N 38°42' W 009°10'0 0.0
2017-Apr-20 08:00N 38°42' W 009°10'0 0.0
2017-Apr-20 07:29N 38°42' W 009°10'2 4.7
2017-Apr-20 07:00N 38°43' W 009°07'0 0.7
2017-Apr-20 06:29N 38°43' W 009°07'2 4.2
2017-Apr-20 06:00N 38°42' W 009°10'0 0.0
2017-Apr-20 05:28N 38°42' W 009°10'0 0.0
2017-Apr-20 05:00N 38°42' W 009°10'0 0.0
2017-Apr-20 04:29N 38°42' W 009°10'0 0.0
2017-Apr-20 04:01N 38°42' W 009°10'0 0.0
2017-Apr-20 03:30N 38°42' W 009°10'0 0.0
2017-Apr-20 03:00N 38°42' W 009°10'0 0.0
2017-Apr-20 02:30N 38°42' W 009°10'0 0.0
2017-Apr-20 02:00N 38°42' W 009°10'0 0.7
2017-Apr-20 01:30N 38°42' W 009°10'0 0.2
2017-Apr-20 01:00N 38°42' W 009°10'0 0.5
2017-Apr-20 00:30N 38°42' W 009°10'0 0.0
2017-Apr-20 00:00N 38°42' W 009°10'0 0.0
2017-Apr-19 23:30N 38°42' W 009°10'0 0.0
2017-Apr-19 23:00N 38°42' W 009°10'0 0.0
2017-Apr-19 22:30N 38°42' W 009°10'0 0.0
2017-Apr-19 22:00N 38°42' W 009°10'0 0.0
2017-Apr-19 21:30N 38°42' W 009°10'0 0.0
2017-Apr-19 20:58N 38°42' W 009°10'0 0.0
2017-Apr-19 20:30N 38°42' W 009°10'0 0.0
2017-Apr-19 20:00N 38°42' W 009°10'0 0.0
2017-Apr-19 19:30N 38°42' W 009°10'0 0.0
2017-Apr-19 19:00N 38°42' W 009°10'0 0.0
2017-Apr-19 18:30N 38°42' W 009°10'0 0.0
2017-Apr-19 18:00N 38°42' W 009°10'0 0.0
2017-Apr-19 17:30N 38°42' W 009°10'1 2.7
2017-Apr-19 17:00N 38°42' W 009°08'1 1.9
2017-Apr-19 16:30N 38°43' W 009°07'3 5.6
2017-Apr-19 15:59N 38°40' W 009°09'1 2.9
2017-Apr-19 15:30N 38°42' W 009°08'1 2.3
2017-Apr-19 15:00N 38°42' W 009°10'0 0.0
2017-Apr-19 14:30N 38°42' W 009°10'0 0.0
2017-Apr-19 13:30N 38°42' W 009°10'0 0.0
2017-Apr-19 12:59N 38°42' W 009°10'2 4.5
2017-Apr-19 12:30N 38°42' W 009°07'0 0.1
2017-Apr-19 12:00N 38°42' W 009°07'2 4.6
2017-Apr-19 11:30N 38°42' W 009°10'0 0.0
2017-Apr-19 11:00N 38°42' W 009°10'0 0.0
2017-Apr-19 10:30N 38°42' W 009°10'0 0.0
2017-Apr-19 10:00N 38°42' W 009°10'0 0.0
2017-Apr-19 09:30N 38°42' W 009°10'0 0.0
2017-Apr-19 09:00N 38°42' W 009°10'0 0.0
2017-Apr-19 08:30N 38°42' W 009°10'1 1.3
2017-Apr-19 08:00N 38°42' W 009°09'2 3.5
2017-Apr-19 07:30N 38°40' W 009°09'1 1.2
2017-Apr-19 07:00N 38°41' W 009°09'2 3.4
2017-Apr-19 06:30N 38°42' W 009°10'1 1.2
2017-Apr-19 06:00N 38°42' W 009°09'1 1.5
2017-Apr-19 05:30N 38°42' W 009°10'1 2.5
2017-Apr-19 05:00N 38°41' W 009°11'2 3.0
2017-Apr-19 04:30N 38°42' W 009°10'0 0.0
2017-Apr-19 04:00N 38°42' W 009°10'0 0.0
2017-Apr-19 03:30N 38°42' W 009°10'0 0.0
2017-Apr-19 03:00N 38°42' W 009°10'0 0.0
2017-Apr-19 02:30N 38°42' W 009°10'0 0.0
2017-Apr-19 02:00N 38°42' W 009°10'0 0.0
2017-Apr-19 01:30N 38°42' W 009°10'0 0.0
2017-Apr-19 01:00N 38°42' W 009°10'0 0.0
2017-Apr-19 00:30N 38°42' W 009°10'0 0.0
2017-Apr-18 23:59N 38°42' W 009°10'0 0.0
2017-Apr-18 23:30N 38°42' W 009°10'0 0.0
2017-Apr-18 23:00N 38°42' W 009°10'0 0.0
2017-Apr-18 22:30N 38°42' W 009°10'0 0.0
2017-Apr-18 22:00N 38°42' W 009°10'0 0.0
2017-Apr-18 21:30N 38°42' W 009°10'0 0.0
2017-Apr-18 21:00N 38°42' W 009°10'0 0.3
2017-Apr-18 20:30N 38°42' W 009°10'4 7.2
2017-Apr-18 20:00N 38°41' W 009°14'0 0.2
2017-Apr-18 19:30N 38°41' W 009°14'1 2.0
2017-Apr-18 19:00N 38°41' W 009°15'3 6.1
2017-Apr-18 18:29N 38°42' W 009°11'1 2.7
2017-Apr-18 18:00N 38°42' W 009°10'0 0.0
2017-Apr-18 17:30N 38°42' W 009°10'0 0.0
2017-Apr-18 17:00N 38°42' W 009°10'2 3.8
2017-Apr-18 16:30N 38°40' W 009°08'0 0.1
2017-Apr-18 16:00N 38°40' W 009°08'1 2.0
2017-Apr-18 15:30N 38°41' W 009°09'1 1.5
2017-Apr-18 15:00N 38°41' W 009°08'1 1.5
2017-Apr-18 14:30N 38°40' W 009°09'2 1.8
2017-Apr-18 13:30N 38°42' W 009°09'0 0.6
2017-Apr-18 13:00N 38°42' W 009°09'0 0.4
2017-Apr-18 12:30N 38°42' W 009°10'0 0.0
2017-Apr-18 12:00N 38°42' W 009°10'0 0.0
2017-Apr-18 11:30N 38°42' W 009°10'0 0.0
2017-Apr-18 11:00N 38°42' W 009°10'0 0.0
2017-Apr-18 10:30N 38°42' W 009°10'0 0.0
2017-Apr-18 10:00N 38°42' W 009°10'0 0.0
2017-Apr-18 09:30N 38°42' W 009°10'0 0.0
2017-Apr-18 09:00N 38°42' W 009°10'1 1.4
2017-Apr-18 08:30N 38°42' W 009°10'0 0.2
2017-Apr-18 08:00N 38°42' W 009°10'0 1.0
2017-Apr-18 07:30N 38°41' W 009°11'1 2.1
2017-Apr-18 07:00N 38°42' W 009°10'0 0.0
2017-Apr-18 06:30N 38°42' W 009°10'0 0.7
2017-Apr-18 05:59N 38°42' W 009°10'0 0.9
2017-Apr-18 05:30N 38°42' W 009°10'1 2.1
2017-Apr-18 05:00N 38°42' W 009°11'1 2.3
2017-Apr-18 04:30N 38°42' W 009°10'0 0.0
2017-Apr-18 04:00N 38°42' W 009°10'0 0.0
2017-Apr-18 03:29N 38°42' W 009°10'0 0.0
2017-Apr-18 03:00N 38°42' W 009°10'0 0.0
2017-Apr-18 02:30N 38°42' W 009°10'0 0.0
2017-Apr-18 02:00N 38°42' W 009°10'0 0.0
2017-Apr-18 01:30N 38°42' W 009°10'0 0.0
2017-Apr-18 01:00N 38°42' W 009°10'0 0.0
2017-Apr-18 00:30N 38°42' W 009°10'0 0.0
2017-Apr-18 00:00N 38°42' W 009°10'0 0.0
2017-Apr-17 23:30N 38°42' W 009°10'0 0.0
2017-Apr-17 23:00N 38°42' W 009°10'0 0.0
2017-Apr-17 22:30N 38°42' W 009°10'0 0.0
2017-Apr-17 22:00N 38°42' W 009°10'0 0.0
2017-Apr-17 21:30N 38°42' W 009°10'0 0.0
2017-Apr-17 21:00N 38°42' W 009°10'0 0.0
2017-Apr-17 20:30N 38°42' W 009°10'0 0.0
2017-Apr-17 20:00N 38°42' W 009°10'0 0.0
2017-Apr-17 19:30N 38°42' W 009°10'0 0.0
2017-Apr-17 19:00N 38°42' W 009°10'0 0.0
2017-Apr-17 18:30N 38°42' W 009°10'0 0.0
2017-Apr-17 18:00N 38°42' W 009°10'0 0.0
2017-Apr-17 17:30N 38°42' W 009°10'0 0.0
2017-Apr-17 17:00N 38°42' W 009°10'0 0.0
2017-Apr-17 16:30N 38°42' W 009°10'0 0.0
2017-Apr-17 16:00N 38°42' W 009°10'0 0.0
2017-Apr-17 15:30N 38°42' W 009°10'0 0.0
2017-Apr-17 15:00N 38°42' W 009°10'0 0.0
2017-Apr-17 14:00N 38°42' W 009°10'0 0.0
2017-Apr-17 13:30N 38°42' W 009°10'0 0.0
2017-Apr-17 13:00N 38°42' W 009°10'2 4.2
2017-Apr-17 12:30N 38°40' W 009°09'0 0.3
2017-Apr-17 12:00N 38°40' W 009°09'0 0.0
2017-Apr-17 11:29N 38°40' W 009°09'0 0.0
2017-Apr-17 11:00N 38°40' W 009°09'0 0.4
2017-Apr-17 10:30N 38°40' W 009°09'0 0.3
2017-Apr-17 10:00N 38°40' W 009°09'2 3.8
2017-Apr-17 09:30N 38°42' W 009°10'0 0.0
2017-Apr-17 09:00N 38°42' W 009°10'0 0.0
2017-Apr-17 08:30N 38°42' W 009°10'0 0.0
2017-Apr-17 08:00N 38°42' W 009°10'0 0.0
2017-Apr-17 07:30N 38°42' W 009°10'0 0.0
2017-Apr-17 07:00N 38°42' W 009°10'0 0.0
2017-Apr-17 06:30N 38°42' W 009°10'0 0.3
2017-Apr-17 06:00N 38°42' W 009°09'1 1.6
2017-Apr-17 05:30N 38°42' W 009°10'1 2.1
2017-Apr-17 05:00N 38°42' W 009°12'2 3.3
2017-Apr-17 04:30N 38°42' W 009°10'0 0.0
2017-Apr-17 04:00N 38°42' W 009°10'0 0.0
2017-Apr-17 03:30N 38°42' W 009°10'1 1.1
2017-Apr-17 03:00N 38°42' W 009°09'4 8.5
2017-Apr-17 02:30N 38°41' W 009°04'1 1.5
2017-Apr-17 02:00N 38°41' W 009°05'4 7.3
2017-Apr-17 01:30N 38°41' W 009°09'1 1.2
2017-Apr-17 01:00N 38°42' W 009°09'0 0.5
2017-Apr-17 00:30N 38°42' W 009°10'0 0.0
2017-Apr-17 00:00N 38°42' W 009°10'0 0.0
2017-Apr-16 23:30N 38°42' W 009°10'0 0.0
2017-Apr-16 23:00N 38°42' W 009°10'0 0.0
2017-Apr-16 22:30N 38°42' W 009°10'0 0.0
2017-Apr-16 22:00N 38°42' W 009°10'0 0.0
2017-Apr-16 21:30N 38°42' W 009°10'0 0.0
2017-Apr-16 21:00N 38°42' W 009°10'2 3.4
2017-Apr-16 20:30N 38°41' W 009°12'0 0.5
2017-Apr-16 20:00N 38°41' W 009°11'2 3.6
2017-Apr-16 19:30N 38°42' W 009°10'0 0.0
2017-Apr-16 19:00N 38°42' W 009°10'0 0.6
2017-Apr-16 18:30N 38°42' W 009°10'0 0.2
2017-Apr-16 18:00N 38°42' W 009°10'1 2.0
2017-Apr-16 17:30N 38°42' W 009°09'2 4.1
2017-Apr-16 16:57N 38°43' W 009°07'0 0.2
2017-Apr-16 16:30N 38°43' W 009°07'3 5.4
2017-Apr-16 16:00N 38°42' W 009°10'0 0.0
2017-Apr-16 15:30N 38°42' W 009°10'0 0.0
2017-Apr-16 15:00N 38°42' W 009°10'0 0.0
2017-Apr-16 14:00N 38°42' W 009°10'0 0.0
2017-Apr-16 13:30N 38°42' W 009°10'0 0.0
2017-Apr-16 13:00N 38°42' W 009°10'0 0.0
2017-Apr-16 12:30N 38°42' W 009°10'0 0.0
2017-Apr-16 12:00N 38°42' W 009°10'0 0.0
2017-Apr-16 11:30N 38°42' W 009°10'0 0.0
2017-Apr-16 11:00N 38°42' W 009°10'0 0.0
2017-Apr-16 10:30N 38°42' W 009°10'0 0.0
2017-Apr-16 10:00N 38°42' W 009°10'0 0.0
2017-Apr-16 09:30N 38°42' W 009°10'0 0.0
2017-Apr-16 09:00N 38°42' W 009°10'0 0.0
2017-Apr-16 08:30N 38°42' W 009°10'0 0.0
2017-Apr-16 08:00N 38°42' W 009°10'0 0.0
2017-Apr-16 07:30N 38°42' W 009°10'0 0.0
2017-Apr-16 07:00N 38°42' W 009°10'0 0.0
2017-Apr-16 06:30N 38°42' W 009°10'0 0.4
2017-Apr-16 06:00N 38°42' W 009°10'1 2.8
2017-Apr-16 05:29N 38°41' W 009°11'1 1.8
2017-Apr-16 05:00N 38°42' W 009°10'1 1.5
2017-Apr-16 04:30N 38°42' W 009°10'0 0.0
2017-Apr-16 04:00N 38°42' W 009°10'0 0.0
2017-Apr-16 03:30N 38°42' W 009°10'0 0.0
2017-Apr-16 03:00N 38°42' W 009°10'0 0.0
2017-Apr-16 02:30N 38°42' W 009°10'0 0.0
2017-Apr-16 02:00N 38°42' W 009°10'0 0.0
2017-Apr-16 01:30N 38°42' W 009°10'0 0.0
2017-Apr-16 01:00N 38°42' W 009°10'0 0.0
2017-Apr-16 00:30N 38°42' W 009°10'0 0.0
2017-Apr-16 00:00N 38°42' W 009°10'0 0.0
2017-Apr-15 23:30N 38°42' W 009°10'0 0.0
2017-Apr-15 23:00N 38°42' W 009°10'0 0.0
2017-Apr-15 22:30N 38°42' W 009°10'0 0.0
2017-Apr-15 22:00N 38°42' W 009°10'0 0.0
2017-Apr-15 21:30N 38°42' W 009°10'0 0.0
2017-Apr-15 21:00N 38°42' W 009°10'0 0.0
2017-Apr-15 20:30N 38°42' W 009°10'0 0.0
2017-Apr-15 20:00N 38°42' W 009°10'0 0.0
2017-Apr-15 19:30N 38°42' W 009°10'0 0.0
2017-Apr-15 19:00N 38°42' W 009°10'0 0.0
2017-Apr-15 18:30N 38°42' W 009°10'1 2.5
2017-Apr-15 18:00N 38°41' W 009°11'1 1.1
2017-Apr-15 17:30N 38°41' W 009°11'1 2.2
2017-Apr-15 17:00N 38°42' W 009°10'1 1.1
2017-Apr-15 16:30N 38°42' W 009°10'0 0.0
2017-Apr-15 16:00N 38°42' W 009°10'0 0.0
2017-Apr-15 15:30N 38°42' W 009°10'0 0.0
2017-Apr-15 15:00N 38°42' W 009°10'2 2.5
2017-Apr-15 14:00N 38°43' W 009°07'0 0.4
2017-Apr-15 13:30N 38°43' W 009°07'2 4.4
2017-Apr-15 13:00N 38°42' W 009°09'0 0.7
2017-Apr-15 12:30N 38°42' W 009°10'0 0.0
2017-Apr-15 12:00N 38°42' W 009°10'0 0.0
2017-Apr-15 11:30N 38°42' W 009°10'0 0.0
2017-Apr-15 11:00N 38°42' W 009°10'0 0.0
2017-Apr-15 10:30N 38°42' W 009°10'0 0.0
2017-Apr-15 10:00N 38°42' W 009°10'0 0.0
2017-Apr-15 09:30N 38°42' W 009°10'0 0.0
2017-Apr-15 09:00N 38°42' W 009°10'0 0.0
2017-Apr-15 08:30N 38°42' W 009°10'0 0.0
2017-Apr-15 08:00N 38°42' W 009°10'0 0.0
2017-Apr-15 07:30N 38°42' W 009°10'0 0.0
2017-Apr-15 07:00N 38°42' W 009°10'0 0.0
2017-Apr-15 06:30N 38°42' W 009°10'0 0.0
2017-Apr-15 06:00N 38°42' W 009°10'2 3.5
2017-Apr-15 05:30N 38°41' W 009°11'1 1.2
2017-Apr-15 05:00N 38°41' W 009°12'1 2.8
2017-Apr-15 04:30N 38°41' W 009°14'2 3.3
2017-Apr-15 04:00N 38°41' W 009°12'2 3.5
2017-Apr-15 03:29N 38°42' W 009°10'0 0.0
2017-Apr-15 02:59N 38°42' W 009°10'0 0.0
2017-Apr-15 02:30N 38°42' W 009°10'0 0.0
2017-Apr-15 02:00N 38°42' W 009°10'0 0.0
2017-Apr-15 01:30N 38°42' W 009°10'0 0.0
2017-Apr-15 01:00N 38°42' W 009°10'0 0.0
2017-Apr-15 00:30N 38°42' W 009°10'0 0.0
2017-Apr-15 00:00N 38°42' W 009°10'0 0.0
2017-Apr-14 23:30N 38°42' W 009°10'0 0.0
2017-Apr-14 22:59N 38°42' W 009°10'0 0.0
2017-Apr-14 22:30N 38°42' W 009°10'0 0.0
2017-Apr-14 22:00N 38°42' W 009°10'0 0.0
2017-Apr-14 21:29N 38°42' W 009°10'0 0.0
2017-Apr-14 21:00N 38°42' W 009°10'  
Track history (hours):
 
Tides and Currents Weather Stations Pressure Air Temp Water Temp Dewpoint Dewpoint Depression Visibility Wind Speed Wind Dir Waves Ship Positions

Svitzer Sines

Last reported at 2017-Apr-24 20:39 UTC. Time now 2017-Apr-25 12:20 UTC.
Position N 37°08' W 008°32'.

Length 28 m; draft 4.8 m.

Type: Other ship. MMSI: 263601890.

Date/timePositionNaut miles runAvg speedWind from/ knotsBaromVisibWave heightAir tempDewpointWater temp
2017-Apr-24 20:39N 37°08' W 008°32'0 0.0
2017-Apr-24 20:30N 37°08' W 008°32'0 0.0
2017-Apr-24 20:00N 37°08' W 008°32'0 0.0
2017-Apr-24 19:30N 37°08' W 008°32'0 0.0
2017-Apr-24 19:00N 37°08' W 008°32'2 3.1
2017-Apr-24 18:30N 37°06' W 008°32'2 3.2
2017-Apr-24 18:00N 37°08' W 008°32'0 0.3
2017-Apr-24 17:30N 37°08' W 008°32'0 0.0
2017-Apr-24 17:00N 37°08' W 008°32'0 0.4
2017-Apr-24 16:30N 37°08' W 008°32'0 0.0
2017-Apr-24 16:00N 37°08' W 008°32'0 0.0
2017-Apr-24 15:30N 37°08' W 008°32'0 0.0
2017-Apr-24 15:00N 37°08' W 008°32'0 0.0
2017-Apr-24 14:30N 37°08' W 008°32'0 0.0
2017-Apr-24 13:30N 37°08' W 008°32'0 0.0
2017-Apr-24 13:00N 37°08' W 008°32'0 0.0
2017-Apr-24 12:30N 37°08' W 008°32'0 0.0
2017-Apr-24 11:59N 37°08' W 008°32'0 0.0
2017-Apr-24 11:30N 37°08' W 008°32'0 0.0
2017-Apr-24 11:00N 37°08' W 008°32'0 0.1
2017-Apr-24 10:30N 37°08' W 008°32'2 4.9
2017-Apr-24 10:00N 37°05' W 008°32'0 0.1
2017-Apr-24 09:30N 37°05' W 008°32'0 0.3
2017-Apr-24 09:00N 37°05' W 008°32'2 4.9
2017-Apr-24 08:30N 37°08' W 008°32'0 0.0
2017-Apr-24 08:01N 37°08' W 008°32'0 0.0
2017-Apr-24 07:30N 37°08' W 008°32'0 0.0
2017-Apr-24 07:00N 37°08' W 008°32'0 0.0
2017-Apr-24 06:30N 37°08' W 008°32'0 0.0
2017-Apr-24 06:00N 37°08' W 008°32'0 0.0
2017-Apr-24 05:30N 37°08' W 008°32'0 0.0
2017-Apr-24 05:00N 37°08' W 008°32'0 0.0
2017-Apr-24 04:30N 37°08' W 008°32'0 0.0
2017-Apr-24 04:00N 37°08' W 008°32'0 0.0
2017-Apr-24 03:30N 37°08' W 008°32'0 0.0
2017-Apr-24 03:00N 37°08' W 008°32'0 0.0
2017-Apr-24 02:30N 37°08' W 008°32'0 0.0
2017-Apr-24 02:00N 37°08' W 008°32'3 5.5
2017-Apr-24 01:30N 37°05' W 008°32'5 9.3
2017-Apr-24 01:00N 37°02' W 008°37'5 9.5
2017-Apr-24 00:30N 36°59' W 008°41'5 9.4
2017-Apr-23 23:59N 36°56' W 008°46'4 9.0
2017-Apr-23 23:30N 36°53' W 008°51'5 9.1
2017-Apr-23 23:00N 36°51' W 008°55'4 8.4
2017-Apr-23 22:30N 36°50' W 009°00'5 8.8
2017-Apr-23 21:59N 36°51' W 009°06'5 9.5
2017-Apr-23 21:30N 36°54' W 009°10'5 9.2
2017-Apr-23 21:00N 36°58' W 009°13'5 9.7
2017-Apr-23 20:30N 37°03' W 009°12'5 9.4
2017-Apr-23 20:00N 37°07' W 009°09'4 8.8
2017-Apr-23 19:30N 37°12' W 009°09'5 9.0
2017-Apr-23 19:00N 37°16' W 009°09'5 9.4
2017-Apr-23 18:30N 37°21' W 009°10'510.0
2017-Apr-23 18:00N 37°26' W 009°11'5 9.9
2017-Apr-23 17:28N 37°31' W 009°11'5 9.9
2017-Apr-23 17:00N 37°36' W 009°12'5 9.7
2017-Apr-23 16:30N 37°41' W 009°12'5 9.7
2017-Apr-23 16:00N 37°45' W 009°13'5 9.8
2017-Apr-23 15:30N 37°50' W 009°14'5 9.8
2017-Apr-23 15:00N 37°55' W 009°14'5 9.5
2017-Apr-23 14:30N 37°60' W 009°15'10 9.4
2017-Apr-23 13:29N 38°09' W 009°17'4 9.3
2017-Apr-23 13:01N 38°14' W 009°18'5 9.3
2017-Apr-23 12:30N 38°18' W 009°18'5 9.1
2017-Apr-23 12:00N 38°23' W 009°19'5 9.1
2017-Apr-23 11:30N 38°27' W 009°20'5 9.2
2017-Apr-23 11:00N 38°32' W 009°21'5 9.0
2017-Apr-23 10:30N 38°36' W 009°21'4 8.1
2017-Apr-23 10:00N 38°40' W 009°19'4 8.3
2017-Apr-23 09:30N 38°41' W 009°14'3 6.4
2017-Apr-23 09:00N 38°42' W 009°10'0 0.0
2017-Apr-23 08:30N 38°42' W 009°10'0 0.0
2017-Apr-23 08:00N 38°42' W 009°10'0 0.0
2017-Apr-23 07:30N 38°42' W 009°10'0 0.0
2017-Apr-23 07:00N 38°42' W 009°10'0 0.0
2017-Apr-23 06:30N 38°42' W 009°10'0 0.0
2017-Apr-23 06:00N 38°42' W 009°10'0 0.0
2017-Apr-23 05:30N 38°42' W 009°10'0 0.0
2017-Apr-23 05:00N 38°42' W 009°10'0 0.0
2017-Apr-23 04:30N 38°42' W 009°10'0 0.0
2017-Apr-23 04:00N 38°42' W 009°10'0 0.0
2017-Apr-23 03:30N 38°42' W 009°10'0 0.0
2017-Apr-23 03:00N 38°42' W 009°10'0 0.0
2017-Apr-23 02:30N 38°42' W 009°10'0 0.0
2017-Apr-23 02:00N 38°42' W 009°10'0 0.0
2017-Apr-23 01:29N 38°42' W 009°10'0 0.0
2017-Apr-23 01:01N 38°42' W 009°10'0 0.0
2017-Apr-23 00:30N 38°42' W 009°10'0 0.0
2017-Apr-23 00:00N 38°42' W 009°10'0 0.0
2017-Apr-22 23:30N 38°42' W 009°10'0 0.0
2017-Apr-22 23:00N 38°42' W 009°10'0 0.0
2017-Apr-22 22:30N 38°42' W 009°10'0 0.0
2017-Apr-22 22:00N 38°42' W 009°10'0 0.0
2017-Apr-22 21:30N 38°42' W 009°10'0 0.0
2017-Apr-22 21:00N 38°42' W 009°10'0 0.0
2017-Apr-22 20:30N 38°42' W 009°10'0 0.0
2017-Apr-22 20:00N 38°42' W 009°10'0 0.0
2017-Apr-22 19:30N 38°42' W 009°10'0 0.0
2017-Apr-22 19:00N 38°42' W 009°10'0 0.0
2017-Apr-22 18:30N 38°42' W 009°10'0 0.0
2017-Apr-22 18:00N 38°42' W 009°10'0 0.0
2017-Apr-22 17:30N 38°42' W 009°10'0 0.0
2017-Apr-22 17:00N 38°42' W 009°10'0 0.0
2017-Apr-22 16:30N 38°42' W 009°10'0 0.0
2017-Apr-22 16:00N 38°42' W 009°10'0 0.0
2017-Apr-22 15:30N 38°42' W 009°10'0 0.0
2017-Apr-22 14:59N 38°42' W 009°10'0 0.0
2017-Apr-22 14:30N 38°42' W 009°10'0 0.0
2017-Apr-22 13:30N 38°42' W 009°10'0 0.0
2017-Apr-22 13:00N 38°42' W 009°10'0 0.0
2017-Apr-22 12:31N 38°42' W 009°10'0 0.0
2017-Apr-22 12:00N 38°42' W 009°10'0 0.0
2017-Apr-22 11:29N 38°42' W 009°10'0 0.0
2017-Apr-22 10:59N 38°42' W 009°10'0 0.0
2017-Apr-22 10:30N 38°42' W 009°10'0 0.0
2017-Apr-22 10:00N 38°42' W 009°10'0 0.0
2017-Apr-22 09:30N 38°42' W 009°10'0 0.0
2017-Apr-22 08:59N 38°42' W 009°10'0 0.0
2017-Apr-22 08:29N 38°42' W 009°10'0 0.0
2017-Apr-22 08:00N 38°42' W 009°10'0 0.0
2017-Apr-22 07:29N 38°42' W 009°10'0 0.0
2017-Apr-22 07:00N 38°42' W 009°10'0 0.0
2017-Apr-22 06:30N 38°42' W 009°10'0 0.0
2017-Apr-22 06:00N 38°42' W 009°10'0 0.0
2017-Apr-22 05:30N 38°42' W 009°10'0 0.0
2017-Apr-22 05:00N 38°42' W 009°10'0 0.0
2017-Apr-22 04:30N 38°42' W 009°10'0 0.0
2017-Apr-22 04:00N 38°42' W 009°10'0 0.0
2017-Apr-22 03:30N 38°42' W 009°10'0 0.0
2017-Apr-22 03:00N 38°42' W 009°10'0 0.0
2017-Apr-22 02:30N 38°42' W 009°10'0 0.0
2017-Apr-22 01:59N 38°42' W 009°10'1 2.8
2017-Apr-22 01:31N 38°42' W 009°11'2 4.1
2017-Apr-22 00:59N 38°41' W 009°14'3 6.0
2017-Apr-22 00:31N 38°42' W 009°10'1 1.2
2017-Apr-21 23:59N 38°42' W 009°10'0 0.0
2017-Apr-21 23:30N 38°42' W 009°10'0 0.5
2017-Apr-21 23:00N 38°42' W 009°10'2 3.4
2017-Apr-21 22:29N 38°41' W 009°12'2 4.1
2017-Apr-21 22:00N 38°42' W 009°10'0 0.0
2017-Apr-21 21:30N 38°42' W 009°10'0 0.0
2017-Apr-21 21:00N 38°42' W 009°10'0 0.0
2017-Apr-21 20:30N 38°42' W 009°10'0 0.0
2017-Apr-21 20:00N 38°42' W 009°10'0 0.0
2017-Apr-21 19:30N 38°42' W 009°10'0 0.0
2017-Apr-21 18:59N 38°42' W 009°10'0 0.0
2017-Apr-21 18:30N 38°42' W 009°10'0 0.0
2017-Apr-21 18:00N 38°42' W 009°10'0 0.0
2017-Apr-21 17:30N 38°42' W 009°10'2 4.3
2017-Apr-21 17:00N 38°40' W 009°09'0 0.6
2017-Apr-21 16:30N 38°40' W 009°09'1 2.2
2017-Apr-21 16:01N 38°41' W 009°08'1 1.9
2017-Apr-21 15:27N 38°40' W 009°09'1 1.5
2017-Apr-21 15:00N 38°41' W 009°08'1 2.8
2017-Apr-21 14:30N 38°42' W 009°09'0 0.5
2017-Apr-21 13:30N 38°42' W 009°10'0 0.0
2017-Apr-21 12:59N 38°42' W 009°10'0 0.0
2017-Apr-21 12:29N 38°42' W 009°10'2 3.4
2017-Apr-21 12:00N 38°41' W 009°11'0 0.0
2017-Apr-21 11:30N 38°41' W 009°11'0 0.0
2017-Apr-21 10:58N 38°41' W 009°11'1 1.6
2017-Apr-21 10:29N 38°41' W 009°12'0 0.9
2017-Apr-21 10:00N 38°41' W 009°11'1 1.5
2017-Apr-21 09:30N 38°41' W 009°11'1 2.1
2017-Apr-21 09:00N 38°42' W 009°10'0 0.0
2017-Apr-21 08:30N 38°42' W 009°10'0 0.0
2017-Apr-21 08:00N 38°42' W 009°10'2 3.9
2017-Apr-21 07:30N 38°40' W 009°09'0 0.2
2017-Apr-21 07:00N 38°40' W 009°09'2 4.1
2017-Apr-21 06:30N 38°42' W 009°10'0 0.0
2017-Apr-21 06:00N 38°42' W 009°10'0 0.0
2017-Apr-21 05:28N 38°42' W 009°10'0 0.0
2017-Apr-21 05:00N 38°42' W 009°10'0 0.0
2017-Apr-21 04:30N 38°42' W 009°10'0 0.0
2017-Apr-21 04:00N 38°42' W 009°10'0 0.0
2017-Apr-21 03:30N 38°42' W 009°10'0 0.0
2017-Apr-21 02:59N 38°42' W 009°10'0 0.0
2017-Apr-21 02:30N 38°42' W 009°10'0 0.0
2017-Apr-21 02:00N 38°42' W 009°10'0 0.0
2017-Apr-21 01:30N 38°42' W 009°10'0 0.0
2017-Apr-21 01:00N 38°42' W 009°10'0 0.0
2017-Apr-21 00:30N 38°42' W 009°10'0 0.0
2017-Apr-21 00:00N 38°42' W 009°10'1 1.7
2017-Apr-20 23:29N 38°42' W 009°11'1 2.1
2017-Apr-20 23:00N 38°41' W 009°12'0 0.1
2017-Apr-20 22:30N 38°41' W 009°12'0 0.1
2017-Apr-20 22:00N 38°41' W 009°12'1 1.0
2017-Apr-20 21:30N 38°41' W 009°11'1 2.8
2017-Apr-20 21:01N 38°42' W 009°10'0 0.0
2017-Apr-20 20:30N 38°42' W 009°10'0 0.0
2017-Apr-20 20:00N 38°42' W 009°10'0 0.0
2017-Apr-20 19:30N 38°42' W 009°10'0 0.0
2017-Apr-20 19:00N 38°42' W 009°10'0 0.0
2017-Apr-20 18:30N 38°42' W 009°10'0 0.0
2017-Apr-20 18:00N 38°42' W 009°10'0 0.5
2017-Apr-20 17:30N 38°42' W 009°10'2 3.8
2017-Apr-20 17:00N 38°41' W 009°12'0 0.7
2017-Apr-20 16:29N 38°41' W 009°12'2 5.1
2017-Apr-20 16:00N 38°42' W 009°10'0 0.0
2017-Apr-20 15:30N 38°42' W 009°10'0 0.0
2017-Apr-20 15:00N 38°42' W 009°10'0 0.0
2017-Apr-20 14:00N 38°42' W 009°10'0 0.0
2017-Apr-20 13:31N 38°42' W 009°10'0 0.0
2017-Apr-20 13:00N 38°42' W 009°10'0 0.0
2017-Apr-20 12:30N 38°42' W 009°10'0 0.0
2017-Apr-20 12:00N 38°42' W 009°10'0 0.0
2017-Apr-20 11:30N 38°42' W 009°10'0 0.0
2017-Apr-20 11:00N 38°42' W 009°10'2 4.4
2017-Apr-20 10:30N 38°41' W 009°12'1 1.9
2017-Apr-20 10:00N 38°41' W 009°13'3 5.9
2017-Apr-20 09:29N 38°42' W 009°09'0 0.4
2017-Apr-20 09:00N 38°42' W 009°10'0 0.0
2017-Apr-20 08:30N 38°42' W 009°10'0 0.0
2017-Apr-20 08:00N 38°42' W 009°10'0 0.0
2017-Apr-20 07:29N 38°42' W 009°10'2 4.7
2017-Apr-20 07:00N 38°43' W 009°07'0 0.7
2017-Apr-20 06:29N 38°43' W 009°07'2 4.2
2017-Apr-20 06:00N 38°42' W 009°10'0 0.0
2017-Apr-20 05:28N 38°42' W 009°10'0 0.0
2017-Apr-20 05:00N 38°42' W 009°10'0 0.0
2017-Apr-20 04:29N 38°42' W 009°10'0 0.0
2017-Apr-20 04:01N 38°42' W 009°10'0 0.0
2017-Apr-20 03:30N 38°42' W 009°10'0 0.0
2017-Apr-20 03:00N 38°42' W 009°10'0 0.0
2017-Apr-20 02:30N 38°42' W 009°10'0 0.0
2017-Apr-20 02:00N 38°42' W 009°10'0 0.7
2017-Apr-20 01:30N 38°42' W 009°10'0 0.2
2017-Apr-20 01:00N 38°42' W 009°10'0 0.5
2017-Apr-20 00:30N 38°42' W 009°10'0 0.0
2017-Apr-20 00:00N 38°42' W 009°10'0 0.0
2017-Apr-19 23:30N 38°42' W 009°10'0 0.0
2017-Apr-19 23:00N 38°42' W 009°10'0 0.0
2017-Apr-19 22:30N 38°42' W 009°10'0 0.0
2017-Apr-19 22:00N 38°42' W 009°10'0 0.0
2017-Apr-19 21:30N 38°42' W 009°10'0 0.0
2017-Apr-19 20:58N 38°42' W 009°10'0 0.0
2017-Apr-19 20:30N 38°42' W 009°10'0 0.0
2017-Apr-19 20:00N 38°42' W 009°10'0 0.0
2017-Apr-19 19:30N 38°42' W 009°10'0 0.0
2017-Apr-19 19:00N 38°42' W 009°10'0 0.0
2017-Apr-19 18:30N 38°42' W 009°10'0 0.0
2017-Apr-19 18:00N 38°42' W 009°10'0 0.0
2017-Apr-19 17:30N 38°42' W 009°10'1 2.7
2017-Apr-19 17:00N 38°42' W 009°08'1 1.9
2017-Apr-19 16:30N 38°43' W 009°07'3 5.6
2017-Apr-19 15:59N 38°40' W 009°09'1 2.9
2017-Apr-19 15:30N 38°42' W 009°08'1 2.3
2017-Apr-19 15:00N 38°42' W 009°10'0 0.0
2017-Apr-19 14:30N 38°42' W 009°10'0 0.0
2017-Apr-19 13:30N 38°42' W 009°10'0 0.0
2017-Apr-19 12:59N 38°42' W 009°10'2 4.5
2017-Apr-19 12:30N 38°42' W 009°07'0 0.1
2017-Apr-19 12:00N 38°42' W 009°07'2 4.6
2017-Apr-19 11:30N 38°42' W 009°10'0 0.0
2017-Apr-19 11:00N 38°42' W 009°10'0 0.0
2017-Apr-19 10:30N 38°42' W 009°10'0 0.0
2017-Apr-19 10:00N 38°42' W 009°10'0 0.0
2017-Apr-19 09:30N 38°42' W 009°10'0 0.0
2017-Apr-19 09:00N 38°42' W 009°10'0 0.0
2017-Apr-19 08:30N 38°42' W 009°10'1 1.3
2017-Apr-19 08:00N 38°42' W 009°09'2 3.5
2017-Apr-19 07:30N 38°40' W 009°09'1 1.2
2017-Apr-19 07:00N 38°41' W 009°09'2 3.4
2017-Apr-19 06:30N 38°42' W 009°10'1 1.2
2017-Apr-19 06:00N 38°42' W 009°09'1 1.5
2017-Apr-19 05:30N 38°42' W 009°10'1 2.5
2017-Apr-19 05:00N 38°41' W 009°11'2 3.0
2017-Apr-19 04:30N 38°42' W 009°10'0 0.0
2017-Apr-19 04:00N 38°42' W 009°10'0 0.0
2017-Apr-19 03:30N 38°42' W 009°10'0 0.0
2017-Apr-19 03:00N 38°42' W 009°10'0 0.0
2017-Apr-19 02:30N 38°42' W 009°10'0 0.0
2017-Apr-19 02:00N 38°42' W 009°10'0 0.0
2017-Apr-19 01:30N 38°42' W 009°10'0 0.0
2017-Apr-19 01:00N 38°42' W 009°10'0 0.0
2017-Apr-19 00:30N 38°42' W 009°10'0 0.0
2017-Apr-18 23:59N 38°42' W 009°10'0 0.0
2017-Apr-18 23:30N 38°42' W 009°10'0 0.0
2017-Apr-18 23:00N 38°42' W 009°10'0 0.0
2017-Apr-18 22:30N 38°42' W 009°10'0 0.0
2017-Apr-18 22:00N 38°42' W 009°10'0 0.0
2017-Apr-18 21:30N 38°42' W 009°10'0 0.0
2017-Apr-18 21:00N 38°42' W 009°10'0 0.3
2017-Apr-18 20:30N 38°42' W 009°10'4 7.2
2017-Apr-18 20:00N 38°41' W 009°14'0 0.2
2017-Apr-18 19:30N 38°41' W 009°14'1 2.0
2017-Apr-18 19:00N 38°41' W 009°15'3 6.1
2017-Apr-18 18:29N 38°42' W 009°11'1 2.7
2017-Apr-18 18:00N 38°42' W 009°10'0 0.0
2017-Apr-18 17:30N 38°42' W 009°10'0 0.0
2017-Apr-18 17:00N 38°42' W 009°10'2 3.8
2017-Apr-18 16:30N 38°40' W 009°08'0 0.1
2017-Apr-18 16:00N 38°40' W 009°08'1 2.0
2017-Apr-18 15:30N 38°41' W 009°09'1 1.5
2017-Apr-18 15:00N 38°41' W 009°08'1 1.5
2017-Apr-18 14:30N 38°40' W 009°09'2 1.8
2017-Apr-18 13:30N 38°42' W 009°09'0 0.6
2017-Apr-18 13:00N 38°42' W 009°09'0 0.4
2017-Apr-18 12:30N 38°42' W 009°10'0 0.0
2017-Apr-18 12:00N 38°42' W 009°10'0 0.0
2017-Apr-18 11:30N 38°42' W 009°10'0 0.0
2017-Apr-18 11:00N 38°42' W 009°10'0 0.0
2017-Apr-18 10:30N 38°42' W 009°10'0 0.0
2017-Apr-18 10:00N 38°42' W 009°10'0 0.0
2017-Apr-18 09:30N 38°42' W 009°10'0 0.0
2017-Apr-18 09:00N 38°42' W 009°10'1 1.4
2017-Apr-18 08:30N 38°42' W 009°10'0 0.2
2017-Apr-18 08:00N 38°42' W 009°10'0 1.0
2017-Apr-18 07:30N 38°41' W 009°11'1 2.1
2017-Apr-18 07:00N 38°42' W 009°10'0 0.0
2017-Apr-18 06:30N 38°42' W 009°10'0 0.7
2017-Apr-18 05:59N 38°42' W 009°10'0 0.9
2017-Apr-18 05:30N 38°42' W 009°10'1 2.1
2017-Apr-18 05:00N 38°42' W 009°11'1 2.3
2017-Apr-18 04:30N 38°42' W 009°10'0 0.0
2017-Apr-18 04:00N 38°42' W 009°10'0 0.0
2017-Apr-18 03:29N 38°42' W 009°10'0 0.0
2017-Apr-18 03:00N 38°42' W 009°10'0 0.0
2017-Apr-18 02:30N 38°42' W 009°10'0 0.0
2017-Apr-18 02:00N 38°42' W 009°10'0 0.0
2017-Apr-18 01:30N 38°42' W 009°10'0 0.0
2017-Apr-18 01:00N 38°42' W 009°10'0 0.0
2017-Apr-18 00:30N 38°42' W 009°10'0 0.0
2017-Apr-18 00:00N 38°42' W 009°10'0 0.0
2017-Apr-17 23:30N 38°42' W 009°10'0 0.0
2017-Apr-17 23:00N 38°42' W 009°10'0 0.0
2017-Apr-17 22:30N 38°42' W 009°10'0 0.0
2017-Apr-17 22:00N 38°42' W 009°10'0 0.0
2017-Apr-17 21:30N 38°42' W 009°10'0 0.0
2017-Apr-17 21:00N 38°42' W 009°10'0 0.0
2017-Apr-17 20:30N 38°42' W 009°10'0 0.0
2017-Apr-17 20:00N 38°42' W 009°10'0 0.0
2017-Apr-17 19:30N 38°42' W 009°10'0 0.0
2017-Apr-17 19:00N 38°42' W 009°10'0 0.0
2017-Apr-17 18:30N 38°42' W 009°10'0 0.0
2017-Apr-17 18:00N 38°42' W 009°10'0 0.0
2017-Apr-17 17:30N 38°42' W 009°10'0 0.0
2017-Apr-17 17:00N 38°42' W 009°10'0 0.0
2017-Apr-17 16:30N 38°42' W 009°10'0 0.0
2017-Apr-17 16:00N 38°42' W 009°10'0 0.0
2017-Apr-17 15:30N 38°42' W 009°10'0 0.0
2017-Apr-17 15:00N 38°42' W 009°10'0 0.0
2017-Apr-17 14:00N 38°42' W 009°10'0 0.0
2017-Apr-17 13:30N 38°42' W 009°10'0 0.0
2017-Apr-17 13:00N 38°42' W 009°10'2 4.2
2017-Apr-17 12:30N 38°40' W 009°09'0 0.3
2017-Apr-17 12:00N 38°40' W 009°09'0 0.0
2017-Apr-17 11:29N 38°40' W 009°09'0 0.0
2017-Apr-17 11:00N 38°40' W 009°09'0 0.4
2017-Apr-17 10:30N 38°40' W 009°09'0 0.3
2017-Apr-17 10:00N 38°40' W 009°09'2 3.8
2017-Apr-17 09:30N 38°42' W 009°10'0 0.0
2017-Apr-17 09:00N 38°42' W 009°10'0 0.0
2017-Apr-17 08:30N 38°42' W 009°10'0 0.0
2017-Apr-17 08:00N 38°42' W 009°10'0 0.0
2017-Apr-17 07:30N 38°42' W 009°10'0 0.0
2017-Apr-17 07:00N 38°42' W 009°10'0 0.0
2017-Apr-17 06:30N 38°42' W 009°10'0 0.3
2017-Apr-17 06:00N 38°42' W 009°09'1 1.6
2017-Apr-17 05:30N 38°42' W 009°10'1 2.1
2017-Apr-17 05:00N 38°42' W 009°12'2 3.3
2017-Apr-17 04:30N 38°42' W 009°10'0 0.0
2017-Apr-17 04:00N 38°42' W 009°10'0 0.0
2017-Apr-17 03:30N 38°42' W 009°10'1 1.1
2017-Apr-17 03:00N 38°42' W 009°09'4 8.5
2017-Apr-17 02:30N 38°41' W 009°04'1 1.5
2017-Apr-17 02:00N 38°41' W 009°05'4 7.3
2017-Apr-17 01:30N 38°41' W 009°09'1 1.2
2017-Apr-17 01:00N 38°42' W 009°09'0 0.5
2017-Apr-17 00:30N 38°42' W 009°10'0 0.0
2017-Apr-17 00:00N 38°42' W 009°10'0 0.0
2017-Apr-16 23:30N 38°42' W 009°10'0 0.0
2017-Apr-16 23:00N 38°42' W 009°10'0 0.0
2017-Apr-16 22:30N 38°42' W 009°10'0 0.0
2017-Apr-16 22:00N 38°42' W 009°10'0 0.0
2017-Apr-16 21:30N 38°42' W 009°10'0 0.0
2017-Apr-16 21:00N 38°42' W 009°10'2 3.4
2017-Apr-16 20:30N 38°41' W 009°12'0 0.5
2017-Apr-16 20:00N 38°41' W 009°11'2 3.6
2017-Apr-16 19:30N 38°42' W 009°10'0 0.0
2017-Apr-16 19:00N 38°42' W 009°10'0 0.6
2017-Apr-16 18:30N 38°42' W 009°10'0 0.2
2017-Apr-16 18:00N 38°42' W 009°10'1 2.0
2017-Apr-16 17:30N 38°42' W 009°09'2 4.1
2017-Apr-16 16:57N 38°43' W 009°07'0 0.2
2017-Apr-16 16:30N 38°43' W 009°07'3 5.4
2017-Apr-16 16:00N 38°42' W 009°10'0 0.0
2017-Apr-16 15:30N 38°42' W 009°10'0 0.0
2017-Apr-16 15:00N 38°42' W 009°10'0 0.0
2017-Apr-16 14:00N 38°42' W 009°10'0 0.0
2017-Apr-16 13:30N 38°42' W 009°10'0 0.0
2017-Apr-16 13:00N 38°42' W 009°10'0 0.0
2017-Apr-16 12:30N 38°42' W 009°10'0 0.0
2017-Apr-16 12:00N 38°42' W 009°10'0 0.0
2017-Apr-16 11:30N 38°42' W 009°10'0 0.0
2017-Apr-16 11:00N 38°42' W 009°10'0 0.0
2017-Apr-16 10:30N 38°42' W 009°10'0 0.0
2017-Apr-16 10:00N 38°42' W 009°10'0 0.0
2017-Apr-16 09:30N 38°42' W 009°10'0 0.0
2017-Apr-16 09:00N 38°42' W 009°10'0 0.0
2017-Apr-16 08:30N 38°42' W 009°10'0 0.0
2017-Apr-16 08:00N 38°42' W 009°10'0 0.0
2017-Apr-16 07:30N 38°42' W 009°10'0 0.0
2017-Apr-16 07:00N 38°42' W 009°10'0 0.0
2017-Apr-16 06:30N 38°42' W 009°10'0 0.4
2017-Apr-16 06:00N 38°42' W 009°10'1 2.8
2017-Apr-16 05:29N 38°41' W 009°11'1 1.8
2017-Apr-16 05:00N 38°42' W 009°10'1 1.5
2017-Apr-16 04:30N 38°42' W 009°10'0 0.0
2017-Apr-16 04:00N 38°42' W 009°10'0 0.0
2017-Apr-16 03:30N 38°42' W 009°10'0 0.0
2017-Apr-16 03:00N 38°42' W 009°10'0 0.0
2017-Apr-16 02:30N 38°42' W 009°10'0 0.0
2017-Apr-16 02:00N 38°42' W 009°10'0 0.0
2017-Apr-16 01:30N 38°42' W 009°10'0 0.0
2017-Apr-16 01:00N 38°42' W 009°10'0 0.0
2017-Apr-16 00:30N 38°42' W 009°10'0 0.0
2017-Apr-16 00:00N 38°42' W 009°10'0 0.0
2017-Apr-15 23:30N 38°42' W 009°10'0 0.0
2017-Apr-15 23:00N 38°42' W 009°10'0 0.0
2017-Apr-15 22:30N 38°42' W 009°10'0 0.0
2017-Apr-15 22:00N 38°42' W 009°10'0 0.0
2017-Apr-15 21:30N 38°42' W 009°10'0 0.0
2017-Apr-15 21:00N 38°42' W 009°10'0 0.0
2017-Apr-15 20:30N 38°42' W 009°10'0 0.0
2017-Apr-15 20:00N 38°42' W 009°10'0 0.0
2017-Apr-15 19:30N 38°42' W 009°10'0 0.0
2017-Apr-15 19:00N 38°42' W 009°10'0 0.0
2017-Apr-15 18:30N 38°42' W 009°10'1 2.5
2017-Apr-15 18:00N 38°41' W 009°11'1 1.1
2017-Apr-15 17:30N 38°41' W 009°11'1 2.2
2017-Apr-15 17:00N 38°42' W 009°10'1 1.1
2017-Apr-15 16:30N 38°42' W 009°10'0 0.0
2017-Apr-15 16:00N 38°42' W 009°10'0 0.0
2017-Apr-15 15:30N 38°42' W 009°10'0 0.0
2017-Apr-15 15:00N 38°42' W 009°10'2 2.5
2017-Apr-15 14:00N 38°43' W 009°07'0 0.4
2017-Apr-15 13:30N 38°43' W 009°07'2 4.4
2017-Apr-15 13:00N 38°42' W 009°09'0 0.7
2017-Apr-15 12:30N 38°42' W 009°10'0 0.0
2017-Apr-15 12:00N 38°42' W 009°10'0 0.0
2017-Apr-15 11:30N 38°42' W 009°10'0 0.0
2017-Apr-15 11:00N 38°42' W 009°10'0 0.0
2017-Apr-15 10:30N 38°42' W 009°10'0 0.0
2017-Apr-15 10:00N 38°42' W 009°10'0 0.0
2017-Apr-15 09:30N 38°42' W 009°10'0 0.0
2017-Apr-15 09:00N 38°42' W 009°10'0 0.0
2017-Apr-15 08:30N 38°42' W 009°10'0 0.0
2017-Apr-15 08:00N 38°42' W 009°10'0 0.0
2017-Apr-15 07:30N 38°42' W 009°10'0 0.0
2017-Apr-15 07:00N 38°42' W 009°10'0 0.0
2017-Apr-15 06:30N 38°42' W 009°10'0 0.0
2017-Apr-15 06:00N 38°42' W 009°10'2 3.5
2017-Apr-15 05:30N 38°41' W 009°11'1 1.2
2017-Apr-15 05:00N 38°41' W 009°12'1 2.8
2017-Apr-15 04:30N 38°41' W 009°14'2 3.3
2017-Apr-15 04:00N 38°41' W 009°12'2 3.5
2017-Apr-15 03:29N 38°42' W 009°10'0 0.0
2017-Apr-15 02:59N 38°42' W 009°10'0 0.0
2017-Apr-15 02:30N 38°42' W 009°10'0 0.0
2017-Apr-15 02:00N 38°42' W 009°10'0 0.0
2017-Apr-15 01:30N 38°42' W 009°10'0 0.0
2017-Apr-15 01:00N 38°42' W 009°10'0 0.0
2017-Apr-15 00:30N 38°42' W 009°10'0 0.0
2017-Apr-15 00:00N 38°42' W 009°10'0 0.0
2017-Apr-14 23:30N 38°42' W 009°10'0 0.0
2017-Apr-14 22:59N 38°42' W 009°10'0 0.0
2017-Apr-14 22:30N 38°42' W 009°10'0 0.0
2017-Apr-14 22:00N 38°42' W 009°10'0 0.0
2017-Apr-14 21:29N 38°42' W 009°10'0 0.0
2017-Apr-14 21:00N 38°42' W 009°10'  

Dump ship's entire track history